Latest Weather Observations for Archerfield

IDQ60901

Issued at 9:11 pm EST Tuesday 24 January 2017 (issued every 10 minutes, with the page automatically refreshed every 10 minutes)

About weather observations | Map of Brisbane area stations | Latest observations for Brisbane area | Other Formats
Station Details ID: 040211 Name: ARCHERFIELD AIRPORT Lat: -27.57 Lon: 153.01 Height: 12.5 m
Data from the previous 72 hours. | See also: Recent months at Archerfield
Date/Time
EST
Temp
°C
App
Temp
°C
Dew
Point
°C
Rel
Hum
%
Delta-T
°C
Wind Press
QNH
hPa
Press
MSL
hPa
Rain since
9am
mm
Dir  Spd
km/h
Gust
km/h
Spd
kts
Gust
kts
24/09:00pm 25.4 23.8 18.3 65 4.5 NNE 24 32 13 17 1014.2 1014.1 0.0
24/08:30pm 25.7 24.5 18.4 64 4.6 NNE 22 30 12 16 1014.2 1014.1 0.0
24/08:00pm 25.7 24.0 18.1 63 4.8 NNE 24 33 13 18 1013.5 1013.4 0.0
24/07:30pm 26.1 24.4 18.2 61 5.0 NNE 24 33 13 18 1013.4 1013.3 0.0
24/07:00pm 26.3 24.9 17.9 60 5.3 NNE 22 30 12 16 1013.3 1013.2 0.0
24/06:30pm 27.1 24.8 17.6 56 6.0 NNE 26 35 14 19 1012.8 1012.7 0.0
24/06:00pm 27.9 25.3 16.8 50 6.9 NNE 26 32 14 17 1012.4 1012.3 0.0
24/05:30pm 29.0 26.6 16.5 46 7.8 NNE 24 30 13 16 1012.3 1012.2 0.0
24/05:00pm 29.7 27.3 16.5 45 8.3 NNE 24 33 13 18 1012.1 1012.0 0.0
24/04:30pm 29.9 27.1 16.3 43 8.5 NNE 26 32 14 17 1012.1 1012.0 0.0
24/04:00pm 30.8 27.9 17.1 43 8.7 N 28 35 15 19 1012.0 1011.9 0.0
24/03:30pm 30.8 28.0 16.4 42 9.0 NNE 26 32 14 17 1012.1 1012.0 0.0
24/03:00pm 31.1 28.4 16.7 42 9.1 NNE 26 33 14 18 1012.4 1012.3 0.0
24/02:30pm 31.5 29.9 16.6 40 9.4 N 20 30 11 16 1012.5 1012.4 0.0
24/02:00pm 32.4 31.2 17.1 40 9.7 N 19 26 10 14 1012.7 1012.6 0.0
24/01:30pm 31.7 30.3 15.6 37 10.0 N 17 28 9 15 1013.1 1013.0 0.0
24/01:00pm 32.0 32.6 15.9 38 10.1 NE 7 19 4 10 1013.6 1013.5 0.0
24/12:30pm 31.5 31.4 15.9 39 9.7 NNE 11 19 6 10 1013.9 1013.8 0.0
24/12:00pm 30.8 31.4 15.2 38 9.6 NW 6 20 3 11 1014.3 1014.2 0.0
24/11:30am 29.9 30.6 15.6 42 8.8 S 6 13 3 7 1014.8 1014.7 0.0
24/11:00am 29.4 30.3 16.6 46 8.0 W 7 17 4 9 1015.3 1015.2 0.0
24/10:30am 29.0 30.5 17.5 49 7.3 SSE 6 13 3 7 1015.9 1015.8 0.0
24/10:00am 27.6 28.2 15.9 49 7.2 NNW 7 17 4 9 1016.4 1016.3 0.0
24/09:30am 27.0 26.4 15.7 50 6.9 W 13 22 7 12 1016.8 1016.7 0.0
24/09:00am 26.9 28.0 17.1 55 6.1 SW 7 15 4 8 1017.0 1016.9 0.0
24/08:30am 25.7 26.5 16.3 56 5.8 SW 7 15 4 8 1017.2 1017.1 0.0
24/08:00am 24.6 25.9 17.1 63 4.6 W 6 7 3 4 1017.0 1016.9 0.0
24/07:30am 23.2 24.7 16.7 67 4.0 SW 4 7 2 4 1017.2 1017.1 0.0
24/07:00am 22.0 23.1 16.7 72 3.2 SSW 6 9 3 5 1017.3 1017.2 0.0
24/06:30am 20.6 21.8 16.8 79 2.3 SW 6 9 3 5 1017.1 1017.0 0.0
24/06:00am 19.7 22.0 16.7 83 1.8 CALM 0 6 0 3 1016.6 1016.5 0.0
24/05:30am 18.9 21.0 16.3 85 1.6 CALM 0 0 0 0 1016.4 1016.3 0.0
24/05:00am 18.9 21.0 16.3 85 1.6 CALM 0 0 0 0 1016.1 1016.0 0.0
24/04:30am 18.4 20.3 15.8 85 1.5 CALM 0 0 0 0 1015.8 1015.7 0.0
24/04:00am 18.3 18.9 15.7 85 1.5 SSW 7 7 4 4 1015.6 1015.5 0.0
24/03:30am 18.9 19.8 16.0 83 1.7 SSW 6 7 3 4 1015.4 1015.3 0.0
24/03:00am 18.7 19.5 15.9 84 1.7 SSW 6 7 3 4 1015.6 1015.5 0.0
24/02:30am 19.2 20.4 15.9 81 2.0 SSW 4 7 2 4 1015.5 1015.4 0.0
24/02:00am 19.9 20.3 16.3 80 2.2 S 9 13 5 7 1015.5 1015.4 0.0
24/01:30am 20.0 20.6 16.8 82 1.9 S 9 13 5 7 1015.6 1015.5 0.0
24/01:00am 20.4 21.2 16.4 78 2.4 SSW 7 9 4 5 1015.6 1015.5 0.0
24/12:30am 20.7 22.7 16.1 75 2.8 CALM 0 0 0 0 1015.8 1015.7 0.0
24/12:00am 21.3 23.6 16.7 75 2.8 CALM 0 0 0 0 1016.1 1016.0 0.0
 
Date/Time
EST
Temp
°C
App
Temp
°C
Dew
Point
°C
Rel
Hum
%
Delta-T
°C
Wind Press
QNH
hPa
Press
MSL
hPa
Rain since
9am
mm
Dir  Spd
km/h
Gust
km/h
Spd
kts
Gust
kts
23/11:30pm 20.8 22.8 16.0 74 2.9 CALM 0 6 0 3 1016.3 1016.2 0.0
23/11:00pm 20.7 21.0 15.0 70 3.4 NE 7 9 4 5 1016.5 1016.4 0.0
23/10:30pm 22.3 22.6 15.9 67 3.9 NE 9 11 5 6 1016.7 1016.6 0.0
23/10:00pm 22.1 22.0 15.9 68 3.7 NE 11 13 6 7 1016.6 1016.5 0.0
23/09:30pm 21.7 21.8 15.5 68 3.7 NE 9 11 5 6 1016.7 1016.6 0.0
23/09:00pm 23.0 22.8 15.8 64 4.3 ENE 11 13 6 7 1016.7 1016.6 0.0
23/08:30pm 23.2 22.9 15.5 62 4.6 ENE 11 13 6 7 1016.6 1016.5 0.0
23/08:00pm 24.1 22.9 15.1 57 5.4 ENE 15 19 8 10 1016.3 1016.2 0.0
23/07:30pm 24.3 23.1 15.0 56 5.6 ENE 15 19 8 10 1016.2 1016.1 0.0
23/07:00pm 25.2 23.7 15.2 54 6.0 ENE 17 20 9 11 1016.0 1015.9 0.0
23/06:30pm 25.5 23.7 15.5 54 6.1 ENE 19 26 10 14 1015.4 1015.3 0.0
23/06:00pm 26.5 24.6 15.8 51 6.5 ENE 20 26 11 14 1015.2 1015.1 0.0
23/05:30pm 26.9 24.8 16.2 52 6.6 NE 22 28 12 15 1014.6 1014.5 0.0
23/05:00pm 27.5 26.1 17.1 53 6.5 ENE 20 28 11 15 1014.2 1014.1 0.0
23/04:30pm 28.5 26.7 16.1 47 7.7 NE 20 28 11 15 1014.0 1013.9 0.0
23/04:00pm 27.8 25.4 15.5 47 7.5 ENE 22 30 12 16 1014.1 1014.0 0.0
23/03:30pm 28.7 26.6 16.3 47 7.7 ENE 22 30 12 16 1014.1 1014.0 0.0
23/03:00pm 28.8 27.5 15.7 45 8.1 NE 17 28 9 15 1014.2 1014.1 0.0
23/02:30pm 29.3 27.2 16.1 44 8.2 NE 22 30 12 16 1014.5 1014.4 0.0
23/02:00pm 29.0 26.5 14.0 39 9.0 NNE 20 39 11 21 1014.4 1014.3 0.0
23/01:30pm 29.2 27.6 13.8 39 9.2 ENE 15 24 8 13 1014.8 1014.7 0.0
23/01:00pm 29.7 28.4 15.8 43 8.6 ESE 17 24 9 13 1015.0 1014.9 0.0
23/12:30pm 28.0 27.2 15.0 45 7.9 ESE 13 24 7 13 1015.4 1015.3 0.0
23/12:00pm 29.1 28.7 16.3 46 8.0 E 13 20 7 11 1015.8 1015.7 0.0
23/11:30am 28.2 27.5 15.5 46 7.8 E 13 20 7 11 1016.2 1016.1 0.0
23/11:00am 27.5 27.4 16.1 49 7.0 ESE 11 19 6 10 1016.5 1016.4 0.0
23/10:30am 26.4 26.2 17.5 58 5.6 ESE 15 22 8 12 1016.9 1016.8 0.0
23/10:00am 25.9 25.0 15.9 54 6.1 ESE 15 26 8 14 1017.2 1017.1 0.0
23/09:30am 26.0 24.7 15.7 53 6.3 ESE 17 24 9 13 1017.2 1017.1 0.0
23/09:00am 26.0 25.8 15.7 53 6.3 ESE 11 17 6 9 1017.1 1017.0 0.0
23/08:30am 25.5 24.5 14.6 51 6.5 SE 13 20 7 11 1017.0 1016.9 0.0
23/08:00am 24.9 25.6 17.1 62 4.8 S 9 15 5 8 1016.8 1016.7 0.0
23/07:30am 23.5 25.0 17.7 70 3.6 SSW 6 11 3 6 1016.9 1016.8 0.0
23/07:00am 22.8 24.1 17.5 72 3.3 SSW 7 11 4 6 1016.8 1016.7 0.0
23/06:30am 21.8 23.4 17.8 78 2.5 SW 6 7 3 4 1016.7 1016.6 0.0
23/06:00am 21.2 23.9 17.8 81 2.1 CALM 0 0 0 0 1016.2 1016.1 0.0
23/05:30am 20.6 23.1 17.2 81 2.1 CALM 0 0 0 0 1015.8 1015.7 0.0
23/05:00am 20.6 23.1 17.2 81 2.1 CALM 0 0 0 0 1015.5 1015.4 0.0
23/04:30am 20.6 21.9 17.2 81 2.1 SW 6 7 3 4 1015.3 1015.2 0.0
23/04:00am 20.5 22.6 17.1 81 2.1 S 2 7 1 4 1015.3 1015.2 0.0
23/03:30am 19.9 22.1 16.5 81 2.0 CALM 0 6 0 3 1015.2 1015.1 0.0
23/03:00am 20.0 22.0 17.0 83 1.8 SSW 2 7 1 4 1015.0 1014.9 0.0
23/02:30am 19.1 21.3 16.5 85 1.6 CALM 0 0 0 0 1015.0 1014.9 0.0
23/02:00am 18.2 19.0 14.9 81 1.9 S 4 9 2 5 1015.2 1015.1 0.0
23/01:30am 20.1 20.9 16.3 79 2.3 S 7 9 4 5 1015.4 1015.3 0.0
23/01:00am 20.6 21.7 16.6 78 2.4 SSW 6 7 3 4 1015.5 1015.4 0.0
23/12:30am 20.6 21.7 17.0 80 2.2 SSW 7 9 4 5 1015.9 1015.8 0.0
23/12:00am 20.8 23.2 17.0 79 2.3 CALM 0 0 0 0 1016.0 1015.9 0.0
 
Date/Time
EST
Temp
°C
App
Temp
°C
Dew
Point
°C
Rel
Hum
%
Delta-T
°C
Wind Press
QNH
hPa
Press
MSL
hPa
Rain since
9am
mm
Dir  Spd
km/h
Gust
km/h
Spd
kts
Gust
kts
22/11:30pm 21.4 23.3 16.6 74 2.9 SSE 2 6 1 3 1016.0 1015.9 0.0
22/11:00pm 22.0 23.0 16.3 70 3.4 ENE 6 9 3 5 1016.2 1016.1 0.0
22/10:30pm 22.5 23.4 16.5 69 3.7 E 7 13 4 7 1016.4 1016.3 0.0
22/10:00pm 22.7 23.2 16.5 68 3.8 E 9 13 5 7 1016.6 1016.5 0.0
22/09:30pm 23.2 23.3 16.5 66 4.1 ESE 11 15 6 8 1016.6 1016.5 0.0
22/09:00pm 23.3 23.4 16.6 66 4.1 E 11 15 6 8 1016.5 1016.4 0.0
22/08:30pm 23.1 23.2 16.4 66 4.1 E 11 15 6 8 1016.4 1016.3 0.0
22/08:00pm 23.8 23.4 16.3 63 4.6 E 13 19 7 10 1016.2 1016.1 0.0
22/07:30pm 24.2 22.8 16.5 62 4.7 E 19 24 10 13 1016.0 1015.9 0.0
22/07:00pm 24.6 23.0 16.1 59 5.2 ESE 19 26 10 14 1015.9 1015.8 0.0
22/06:30pm 25.1 23.3 16.0 57 5.5 E 20 28 11 15 1015.4 1015.3 0.0
22/06:00pm 25.5 24.1 16.6 58 5.5 E 19 26 10 14 1015.0 1014.9 0.0
22/05:30pm 26.4 24.7 16.3 53 6.2 E 20 28 11 15 1014.6 1014.5 0.0
22/05:00pm 26.5 24.1 16.4 53 6.2 ESE 24 32 13 17 1014.3 1014.2 0.0
22/04:30pm 27.2 24.5 16.5 52 6.6 SE 26 33 14 18 1014.0 1013.9 0.0
22/04:00pm 28.1 26.1 16.4 49 7.3 E 22 32 12 17 1014.0 1013.9 0.0
22/03:30pm 28.2 26.6 16.5 49 7.3 ESE 20 32 11 17 1014.3 1014.2 0.0
22/03:00pm 28.2 26.4 16.1 47 7.5 ESE 20 32 11 17 1014.5 1014.4 0.0
22/02:30pm 27.6 25.4 15.9 49 7.2 ESE 22 35 12 19 1014.7 1014.6 0.0
22/02:00pm 27.7 24.8 16.0 49 7.2 ESE 26 35 14 19 1014.9 1014.8 0.0
22/01:30pm 27.5 25.5 16.5 51 6.8 ESE 22 32 12 17 1014.9 1014.8 0.0
22/01:00pm 27.6 25.1 17.2 53 6.5 ESE 26 35 14 19 1015.3 1015.2 0.0
22/12:30pm 27.9 26.2 18.0 55 6.3 ESE 24 33 13 18 1015.6 1015.5 0.0
22/12:00pm 27.4 24.5 17.0 53 6.5 ESE 28 37 15 20 1015.8 1015.7 0.0
22/11:30am 28.4 26.2 17.0 50 7.1 SE 24 37 13 20 1015.9 1015.8 0.0
22/11:00am 28.9 26.1 17.4 49 7.3 SE 28 39 15 21 1016.0 1015.9 0.0
22/10:30am 28.1 25.8 15.7 46 7.6 SE 22 32 12 17 1016.2 1016.1 0.0
22/10:00am 27.2 24.3 17.1 54 6.3 SE 28 39 15 21 1016.4 1016.3 0.0
22/09:30am 27.0 24.7 17.5 56 6.0 SE 26 35 14 19 1016.4 1016.3 0.0
22/09:00am 26.1 22.1 17.5 59 5.4 SE 35 43 19 23 1016.3 1016.2 0.8
22/08:30am 25.7 24.0 17.1 59 5.3 SSE 22 33 12 18 1016.3 1016.2 0.8
22/08:00am 25.0 23.5 17.7 64 4.6 SSE 22 30 12 16 1016.1 1016.0 0.8
22/07:30am 24.6 24.3 18.3 68 4.0 SE 17 24 9 13 1016.0 1015.9 0.8
22/07:00am 24.1 24.1 18.1 69 3.8 SE 15 24 8 13 1015.8 1015.7 0.8
22/06:30am 23.7 24.8 18.1 71 3.5 SSE 9 13 5 7 1015.6 1015.5 0.8
22/06:00am 23.1 25.0 18.6 76 2.8 SSW 6 7 3 4 1015.2 1015.1 0.8
22/05:30am 23.3 24.9 18.2 73 3.2 SSE 7 11 4 6 1014.7 1014.6 0.8
22/05:00am 23.2 24.7 18.1 73 3.2 SSE 7 11 4 6 1014.2 1014.1 0.8
22/04:30am 23.2 23.7 18.3 74 3.1 SE 13 17 7 9 1013.7 1013.6 0.8
22/04:00am 23.2 23.8 18.5 75 3.0 SE 13 20 7 11 1013.4 1013.3 0.8
22/03:30am 23.2 24.2 18.7 76 2.8 SE 11 17 6 9 1013.2 1013.1 0.8
22/03:00am 23.2 24.3 18.9 77 2.7 SE 11 13 6 7 1013.2 1013.1 0.8
22/02:30am 23.2 24.3 18.9 77 2.7 SE 11 15 6 8 1013.3 1013.2 0.8
22/02:00am 23.2 23.9 18.9 77 2.7 SE 13 20 7 11 1013.2 1013.1 0.8
22/01:30am 23.3 23.7 19.0 77 2.7 SSE 15 22 8 12 1013.3 1013.2 0.8
22/01:00am 23.2 23.6 18.9 77 2.7 SE 15 20 8 11 1013.3 1013.2 0.8
22/12:30am 23.4 24.2 19.1 77 2.7 SE 13 19 7 10 1013.4 1013.3 0.8
22/12:00am 23.6 24.5 19.3 77 2.7 SE 13 17 7 9 1013.7 1013.6 0.8
 
Date/Time
EST
Temp
°C
App
Temp
°C
Dew
Point
°C
Rel
Hum
%
Delta-T
°C
Wind Press
QNH
hPa
Press
MSL
hPa
Rain since
9am
mm
Dir  Spd
km/h
Gust
km/h
Spd
kts
Gust
kts
21/11:30pm 23.5 25.0 19.0 76 2.9 SE 9 17 5 9 1013.7 1013.6 0.8
21/11:00pm 23.7 25.9 19.6 78 2.6 SE 7 11 4 6 1014.0 1013.9 0.8
21/10:30pm 23.6 25.8 19.5 78 2.6 SE 7 9 4 5 1014.1 1014.0 0.8
21/10:00pm 23.5 24.5 19.4 78 2.6 SE 13 19 7 10 1014.0 1013.9 0.8
21/09:30pm 23.4 23.3 19.5 79 2.5 SE 19 28 10 15 1013.9 1013.8 0.8

Latest Capital City Observations: Canberra | Sydney | Melbourne | Brisbane | Adelaide | Perth | Hobart | Darwin

Other Formats:

Comma delimited format used in spreadsheet applications
http://www.bom.gov.au/fwo/IDQ60901/IDQ60901.94575.axf

JavaScript Object Notation format (JSON) in row-major order
http://www.bom.gov.au/fwo/IDQ60901/IDQ60901.94575.json